createdAt,value
2022-08-24T00:00:27.200Z,24.00
2022-08-24T00:02:55.764Z,23.90
2022-08-24T00:05:24.424Z,23.90
2022-08-24T00:07:52.884Z,23.90
2022-08-24T00:10:22.572Z,23.90
2022-08-24T00:12:51.215Z,23.90
2022-08-24T00:15:19.666Z,23.90
2022-08-24T00:17:47.897Z,23.90
2022-08-24T00:20:16.280Z,23.90
2022-08-24T00:22:44.595Z,23.80
2022-08-24T00:25:14.481Z,23.80
2022-08-24T00:27:44.314Z,23.80
2022-08-24T00:30:17.581Z,23.70
2022-08-24T00:32:47.158Z,23.70
2022-08-24T00:35:18.390Z,23.70
2022-08-24T00:37:49.544Z,23.60
2022-08-24T00:40:23.050Z,23.60
2022-08-24T00:42:54.235Z,23.50
2022-08-24T00:45:24.901Z,23.50
2022-08-24T00:47:59.937Z,23.40
2022-08-24T00:50:37.202Z,23.40
2022-08-24T00:53:12.081Z,23.30
2022-08-24T00:55:48.571Z,23.30
2022-08-24T00:58:23.030Z,23.30
2022-08-24T01:00:59.131Z,23.30
2022-08-24T01:03:28.883Z,23.30
2022-08-24T01:05:57.995Z,23.20
2022-08-24T01:08:27.087Z,23.20
2022-08-24T01:11:00.170Z,23.10
2022-08-24T01:13:31.397Z,23.10
2022-08-24T01:16:04.071Z,23.10
2022-08-24T01:18:50.429Z,23.10
2022-08-24T01:21:22.141Z,23.00
2022-08-24T01:23:55.294Z,23.00
2022-08-24T01:26:28.452Z,23.00
2022-08-24T01:32:24.354Z,22.90
2022-08-24T01:34:52.769Z,22.90
2022-08-24T01:37:22.289Z,22.90
2022-08-24T01:39:55.693Z,22.80
2022-08-24T01:42:26.596Z,22.80
2022-08-24T01:44:55.241Z,22.80
2022-08-24T01:47:23.948Z,22.70
2022-08-24T01:49:52.370Z,22.70
2022-08-24T01:52:27.966Z,22.70
2022-08-24T01:55:02.052Z,22.70
2022-08-24T01:57:30.451Z,22.70
2022-08-24T01:59:58.948Z,22.60
2022-08-24T02:02:31.861Z,22.60
2022-08-24T02:05:00.328Z,22.60
2022-08-24T02:07:29.743Z,22.60
2022-08-24T02:09:58.835Z,22.60
2022-08-24T02:12:29.024Z,22.40
2022-08-24T02:14:57.363Z,22.40
2022-08-24T02:17:25.750Z,22.40
2022-08-24T02:19:54.062Z,22.40
2022-08-24T02:22:22.402Z,22.40
2022-08-24T02:24:50.810Z,22.40
2022-08-24T02:27:19.583Z,22.30
2022-08-24T02:29:49.496Z,22.40
2022-08-24T02:32:17.930Z,22.40
2022-08-24T02:34:46.272Z,22.30
2022-08-24T02:37:14.646Z,22.20
2022-08-24T02:39:43.074Z,22.20
2022-08-24T02:42:11.558Z,22.20
2022-08-24T02:44:39.858Z,22.20
2022-08-24T02:47:10.281Z,22.10
2022-08-24T02:49:39.392Z,22.10
2022-08-24T02:52:08.260Z,22.10
2022-08-24T02:54:36.916Z,22.10
2022-08-24T02:57:05.797Z,22.10
2022-08-24T02:59:34.374Z,22.10
2022-08-24T03:02:03.069Z,22.10
2022-08-24T03:04:33.714Z,22.00
2022-08-24T03:07:02.309Z,22.00
2022-08-24T03:09:30.791Z,22.00
2022-08-24T03:11:59.295Z,22.00
2022-08-24T03:14:27.791Z,22.00
2022-08-24T03:16:56.388Z,21.90
2022-08-24T03:19:24.763Z,21.90
2022-08-24T03:21:55.247Z,21.90
2022-08-24T03:24:23.659Z,21.90
2022-08-24T03:26:52.531Z,21.90
2022-08-24T03:29:21.110Z,21.90
2022-08-24T03:31:52.460Z,21.90
2022-08-24T03:34:21.004Z,21.90
2022-08-24T03:36:49.726Z,21.80
2022-08-24T03:39:20.118Z,21.80
2022-08-24T03:41:48.846Z,21.80
2022-08-24T03:44:21.306Z,21.70
2022-08-24T03:46:52.772Z,21.70
2022-08-24T03:49:22.048Z,21.70
2022-08-24T03:51:50.850Z,21.80
2022-08-24T03:54:21.308Z,21.80
2022-08-24T03:56:49.670Z,21.80
2022-08-24T03:59:20.097Z,21.80
2022-08-24T04:01:48.846Z,21.70
2022-08-24T04:04:17.680Z,21.70
2022-08-24T04:06:46.969Z,21.70
2022-08-24T04:09:16.102Z,21.60
2022-08-24T04:11:46.313Z,21.50
2022-08-24T04:14:26.985Z,21.50
2022-08-24T04:16:57.908Z,21.50
2022-08-24T04:19:27.207Z,21.50
2022-08-24T04:21:57.498Z,21.50
2022-08-24T04:24:27.028Z,21.50
2022-08-24T04:26:58.548Z,21.40
2022-08-24T04:29:27.257Z,21.40
2022-08-24T04:31:56.767Z,21.40
2022-08-24T04:34:25.557Z,21.40
2022-08-24T04:36:53.928Z,21.20
2022-08-24T04:39:22.278Z,21.30
2022-08-24T04:41:52.335Z,21.30
2022-08-24T04:44:22.772Z,21.30
2022-08-24T04:46:51.315Z,21.30
2022-08-24T04:49:19.753Z,21.30
2022-08-24T04:51:48.250Z,21.30
2022-08-24T04:54:17.279Z,21.20
2022-08-24T04:56:45.851Z,21.30
2022-08-24T04:59:14.482Z,21.20
2022-08-24T05:01:44.399Z,21.30
2022-08-24T05:04:13.668Z,21.30
2022-08-24T05:06:43.162Z,21.30
2022-08-24T05:09:12.371Z,21.40
2022-08-24T05:11:41.502Z,21.20
2022-08-24T05:14:18.004Z,21.20
2022-08-24T05:16:52.772Z,21.60
2022-08-24T05:19:23.229Z,21.80
2022-08-24T05:21:52.131Z,22.10
2022-08-24T05:24:20.814Z,22.40
2022-08-24T05:26:49.177Z,22.60
2022-08-24T05:29:19.111Z,23.10
2022-08-24T05:31:48.926Z,23.50
2022-08-24T05:34:17.203Z,23.90
2022-08-24T05:36:45.478Z,24.30
2022-08-24T05:39:15.467Z,24.70
2022-08-24T05:41:46.250Z,25.00
2022-08-24T05:44:16.705Z,25.30
2022-08-24T05:46:45.798Z,25.60
2022-08-24T05:49:15.522Z,25.70
2022-08-24T05:51:43.826Z,25.60
2022-08-24T05:54:13.684Z,25.50
2022-08-24T05:56:44.882Z,25.40
2022-08-24T05:59:13.861Z,25.40
2022-08-24T06:01:45.582Z,25.40
2022-08-24T06:04:15.580Z,25.30
2022-08-24T06:06:48.589Z,25.20
2022-08-24T06:09:18.647Z,25.10
2022-08-24T06:11:51.434Z,25.00
2022-08-24T06:14:27.139Z,24.90
2022-08-24T06:16:56.184Z,24.90
2022-08-24T06:19:28.799Z,24.90
2022-08-24T06:21:57.175Z,24.90
2022-08-24T06:24:46.366Z,25.00
2022-08-24T06:27:21.708Z,25.00
2022-08-24T06:29:52.073Z,25.00
2022-08-24T06:32:20.857Z,25.00
2022-08-24T06:34:50.618Z,25.00
2022-08-24T06:37:19.374Z,25.10
2022-08-24T06:39:48.461Z,25.10
2022-08-24T06:42:24.738Z,25.20
2022-08-24T06:44:53.791Z,25.20
2022-08-24T06:47:22.454Z,25.20
2022-08-24T06:53:30.065Z,25.20
2022-08-24T06:56:00.282Z,25.30
2022-08-24T06:58:29.581Z,25.30
2022-08-24T07:00:57.844Z,25.40
2022-08-24T07:06:37.049Z,25.60
2022-08-24T07:09:06.524Z,25.70
2022-08-24T07:11:35.124Z,25.80
2022-08-24T07:14:04.018Z,26.00
2022-08-24T07:16:32.340Z,26.10
2022-08-24T07:19:01.398Z,26.20
2022-08-24T07:21:30.587Z,26.30
2022-08-24T07:24:02.419Z,26.40
2022-08-24T07:26:32.811Z,26.50
2022-08-24T07:29:06.261Z,26.70
2022-08-24T07:31:35.683Z,26.90
2022-08-24T07:34:06.140Z,27.00
2022-08-24T07:36:35.180Z,27.20
2022-08-24T07:39:06.295Z,27.40
2022-08-24T07:41:56.795Z,27.60
2022-08-24T07:44:28.818Z,27.90
2022-08-24T07:46:57.065Z,28.10
2022-08-24T07:49:37.209Z,28.30
2022-08-24T07:52:10.173Z,28.60
2022-08-24T07:54:40.988Z,28.80
2022-08-24T07:57:09.492Z,29.00
2022-08-24T07:59:38.704Z,29.20
2022-08-24T08:02:08.242Z,29.40
2022-08-24T08:04:36.723Z,29.70
2022-08-24T08:07:05.259Z,29.90
2022-08-24T08:09:33.535Z,30.10
2022-08-24T08:12:03.586Z,30.40
2022-08-24T08:14:31.878Z,30.60
2022-08-24T08:17:00.166Z,30.90
2022-08-24T08:19:29.076Z,31.20
2022-08-24T08:22:14.690Z,31.40
2022-08-24T08:24:44.020Z,31.60
2022-08-24T08:27:17.148Z,31.90
2022-08-24T08:29:46.062Z,32.20
2022-08-24T08:32:16.804Z,32.40
2022-08-24T08:34:45.692Z,32.60
2022-08-24T08:37:15.422Z,32.80
2022-08-24T08:39:44.820Z,33.10
2022-08-24T08:42:38.499Z,33.20
2022-08-24T08:45:33.260Z,33.40
2022-08-24T08:48:50.604Z,33.70
2022-08-24T08:51:57.656Z,33.90
2022-08-24T08:54:43.854Z,34.10
2022-08-24T08:57:39.161Z,34.20
2022-08-24T09:00:16.282Z,34.40
2022-08-24T09:03:31.310Z,34.60
2022-08-24T09:06:36.914Z,34.70
2022-08-24T09:09:26.791Z,34.90
2022-08-24T09:12:09.470Z,35.10
2022-08-24T09:15:18.692Z,35.20
2022-08-24T09:18:02.162Z,35.40
2022-08-24T09:21:10.044Z,35.50
2022-08-24T09:23:50.255Z,35.70
2022-08-24T09:26:27.654Z,35.80
2022-08-24T09:29:06.701Z,36.00
2022-08-24T09:31:54.826Z,36.00
2022-08-24T09:34:37.851Z,35.90
2022-08-24T09:37:32.568Z,36.10
2022-08-24T09:40:08.948Z,36.30
2022-08-24T09:43:13.719Z,36.30
2022-08-24T09:46:14.896Z,36.40
2022-08-24T09:49:17.139Z,36.40
2022-08-24T09:52:10.135Z,36.50
2022-08-24T09:55:25.451Z,36.60
2022-08-24T09:58:08.692Z,36.70
2022-08-24T10:00:45.619Z,36.70
2022-08-24T10:03:36.190Z,36.70
2022-08-24T10:06:33.003Z,36.80
2022-08-24T10:09:41.383Z,36.90
2022-08-24T10:12:22.683Z,37.00
2022-08-24T10:15:00.204Z,37.10
2022-08-24T10:17:44.383Z,37.20
2022-08-24T10:20:24.603Z,37.30
2022-08-24T10:23:16.257Z,37.40
2022-08-24T10:25:56.899Z,37.40
2022-08-24T10:29:07.055Z,37.40
2022-08-24T10:31:46.505Z,37.60
2022-08-24T10:34:35.639Z,37.70
2022-08-24T10:37:32.969Z,37.80
2022-08-24T10:40:36.498Z,37.90
2022-08-24T10:43:39.824Z,37.90
2022-08-24T10:46:41.809Z,37.90
2022-08-24T10:50:06.990Z,37.90
2022-08-24T10:53:15.829Z,38.00
2022-08-24T10:55:46.637Z,38.10
2022-08-24T10:58:45.431Z,38.20
2022-08-24T11:01:26.623Z,38.30
2022-08-24T11:04:01.790Z,38.40
2022-08-24T11:06:34.250Z,38.50
2022-08-24T11:09:08.175Z,38.50
2022-08-24T11:11:40.925Z,38.50
2022-08-24T11:14:23.611Z,38.50
2022-08-24T11:16:57.035Z,38.30
2022-08-24T11:19:36.580Z,37.90
2022-08-24T11:22:31.745Z,37.80
2022-08-24T11:25:03.903Z,37.90
2022-08-24T11:27:38.717Z,38.00
2022-08-24T11:30:14.656Z,38.00
2022-08-24T11:32:46.225Z,37.90
2022-08-24T11:35:24.989Z,37.70
2022-08-24T11:37:56.536Z,37.80
2022-08-24T11:40:30.549Z,37.90
2022-08-24T11:43:16.853Z,37.90
2022-08-24T11:46:00.094Z,37.90
2022-08-24T11:48:45.788Z,37.90
2022-08-24T11:51:26.965Z,37.90
2022-08-24T11:54:04.834Z,37.70
2022-08-24T11:56:42.389Z,37.60
2022-08-24T11:59:24.782Z,37.70
2022-08-24T12:01:58.674Z,37.90
2022-08-24T12:04:51.082Z,38.10
2022-08-24T12:07:33.383Z,38.30
2022-08-24T12:10:21.730Z,38.40
2022-08-24T12:12:58.732Z,38.50
2022-08-24T12:15:44.706Z,38.50
2022-08-24T12:18:28.175Z,38.60
2022-08-24T12:20:58.436Z,38.60
2022-08-24T12:23:38.652Z,38.60
2022-08-24T12:26:13.805Z,38.40
2022-08-24T12:28:54.302Z,38.30
2022-08-24T12:31:35.978Z,38.30
2022-08-24T12:34:10.570Z,38.30
2022-08-24T12:36:50.462Z,38.20
2022-08-24T12:39:24.216Z,38.20
2022-08-24T12:42:07.710Z,38.10
2022-08-24T12:44:47.308Z,38.10
2022-08-24T12:47:26.571Z,38.00
2022-08-24T12:50:04.788Z,38.00
2022-08-24T12:53:18.885Z,37.80
2022-08-24T12:56:10.915Z,37.70
2022-08-24T12:59:09.418Z,37.60
2022-08-24T13:01:47.860Z,37.60
2022-08-24T13:04:32.888Z,37.60
2022-08-24T13:07:06.486Z,37.60
2022-08-24T13:09:38.301Z,37.50
2022-08-24T13:13:09.483Z,37.50
2022-08-24T13:16:03.475Z,37.40
2022-08-24T13:19:14.511Z,37.30
2022-08-24T13:21:53.089Z,37.20
2022-08-24T13:25:19.678Z,36.90
2022-08-24T13:28:04.669Z,36.80
2022-08-24T13:31:21.254Z,36.70
2022-08-24T13:33:52.916Z,36.70
2022-08-24T13:36:55.087Z,36.60
2022-08-24T13:40:09.860Z,36.50
2022-08-24T13:43:12.886Z,36.40
2022-08-24T13:45:47.959Z,36.30
2022-08-24T13:48:32.826Z,36.20
2022-08-24T13:51:36.328Z,36.20
2022-08-24T13:54:23.187Z,36.10
2022-08-24T13:57:21.379Z,35.80
2022-08-24T14:00:17.935Z,35.70
2022-08-24T14:03:03.099Z,35.60
2022-08-24T14:05:38.409Z,35.70
2022-08-24T14:08:26.938Z,35.70
2022-08-24T14:11:09.541Z,35.80
2022-08-24T14:13:53.834Z,35.90
2022-08-24T14:17:19.413Z,36.00
2022-08-24T14:19:59.059Z,36.00
2022-08-24T14:22:35.551Z,36.00
2022-08-24T14:25:20.963Z,36.00
2022-08-24T14:27:53.379Z,35.90
2022-08-24T14:30:54.342Z,35.70
2022-08-24T14:33:29.758Z,35.70
2022-08-24T14:36:16.278Z,35.70
2022-08-24T14:39:14.460Z,35.80
2022-08-24T14:41:53.877Z,35.80
2022-08-24T14:44:49.876Z,35.80
2022-08-24T14:47:33.736Z,35.80
2022-08-24T14:50:15.448Z,35.80
2022-08-24T14:53:07.383Z,35.60
2022-08-24T14:55:43.248Z,35.40
2022-08-24T14:58:28.999Z,35.30
2022-08-24T15:01:40.585Z,35.20
2022-08-24T15:04:41.378Z,35.00
2022-08-24T15:07:29.567Z,34.80
2022-08-24T15:10:00.578Z,34.70
2022-08-24T15:12:37.914Z,34.60
2022-08-24T15:15:15.215Z,34.60
2022-08-24T15:17:59.099Z,34.50
2022-08-24T15:21:22.937Z,34.40
2022-08-24T15:24:10.057Z,34.40
2022-08-24T15:27:00.734Z,34.30
2022-08-24T15:29:34.136Z,34.30
2022-08-24T15:32:08.221Z,34.20
2022-08-24T15:34:48.862Z,34.10
2022-08-24T15:37:27.675Z,34.00
2022-08-24T15:39:55.918Z,34.10
2022-08-24T15:42:24.383Z,34.00
2022-08-24T15:44:53.001Z,34.00
2022-08-24T15:47:31.106Z,33.90
2022-08-24T15:50:04.726Z,33.80
2022-08-24T15:52:48.595Z,33.80
2022-08-24T15:55:39.518Z,33.80
2022-08-24T15:58:32.186Z,33.80
2022-08-24T16:01:38.604Z,33.80
2022-08-24T16:04:10.499Z,33.70
2022-08-24T16:06:45.232Z,33.70
2022-08-24T16:09:37.605Z,33.60
2022-08-24T16:12:11.139Z,33.60
2022-08-24T16:14:47.061Z,33.60
2022-08-24T16:17:30.479Z,33.50
2022-08-24T16:20:01.962Z,33.40
2022-08-24T16:22:36.691Z,33.40
2022-08-24T16:25:22.894Z,33.30
2022-08-24T16:28:09.813Z,33.20
2022-08-24T16:30:44.484Z,33.20
2022-08-24T16:33:44.639Z,33.10
2022-08-24T16:36:17.692Z,33.10
2022-08-24T16:38:51.062Z,33.10
2022-08-24T16:41:22.866Z,33.00
2022-08-24T16:43:51.171Z,32.90
2022-08-24T16:46:22.886Z,32.90
2022-08-24T16:48:53.939Z,32.80
2022-08-24T16:51:24.360Z,32.80
2022-08-24T16:53:54.340Z,32.80
2022-08-24T16:56:23.410Z,32.70
2022-08-24T16:58:52.662Z,32.70
2022-08-24T17:01:20.929Z,32.70
2022-08-24T17:03:49.298Z,32.70
2022-08-24T17:06:18.899Z,32.70
2022-08-24T17:08:51.069Z,32.70
2022-08-24T17:11:20.659Z,32.70
2022-08-24T17:13:50.249Z,32.70
2022-08-24T17:16:20.832Z,32.70
2022-08-24T17:18:49.325Z,32.60
2022-08-24T17:21:18.079Z,32.60
2022-08-24T17:23:47.512Z,32.50
2022-08-24T17:26:20.398Z,32.50
2022-08-24T17:28:54.458Z,32.50
2022-08-24T17:31:24.697Z,32.50
2022-08-24T17:33:53.327Z,32.40
2022-08-24T17:36:25.017Z,32.40
2022-08-24T17:38:56.340Z,32.40
2022-08-24T17:41:27.196Z,32.30
2022-08-24T17:43:57.209Z,32.30
2022-08-24T17:46:25.650Z,32.30
2022-08-24T17:48:53.845Z,32.30
2022-08-24T17:51:22.061Z,32.30
2022-08-24T17:53:50.275Z,32.20
2022-08-24T17:56:19.262Z,32.20
2022-08-24T17:59:14.304Z,32.10
2022-08-24T18:01:44.522Z,32.10
2022-08-24T18:04:12.871Z,32.10
2022-08-24T18:06:41.402Z,32.00
2022-08-24T18:09:26.749Z,31.90
2022-08-24T18:11:54.938Z,31.90
2022-08-24T18:14:23.746Z,31.90
2022-08-24T18:16:54.419Z,31.80
2022-08-24T18:19:26.283Z,31.80
2022-08-24T18:21:54.811Z,31.70
2022-08-24T18:24:23.456Z,31.60
2022-08-24T18:26:52.585Z,31.50
2022-08-24T18:29:23.786Z,31.40
2022-08-24T18:31:53.416Z,31.30
2022-08-24T18:34:22.714Z,31.20
2022-08-24T18:36:51.389Z,31.20
2022-08-24T18:39:20.291Z,31.10
2022-08-24T18:41:49.774Z,31.00
2022-08-24T18:44:20.763Z,30.90
2022-08-24T18:46:49.440Z,30.80
2022-08-24T18:49:21.142Z,30.70
2022-08-24T18:51:50.521Z,30.70
2022-08-24T18:54:22.131Z,30.60
2022-08-24T18:56:50.688Z,30.50
2022-08-24T18:59:21.199Z,30.40
2022-08-24T19:02:09.641Z,30.30
2022-08-24T19:04:45.145Z,30.20
2022-08-24T19:07:14.006Z,30.10
2022-08-24T19:09:42.623Z,30.00
2022-08-24T19:12:11.546Z,30.00
2022-08-24T19:14:43.352Z,29.90
2022-08-24T19:17:14.152Z,29.80
2022-08-24T19:19:45.708Z,29.80
2022-08-24T19:22:13.971Z,29.70
2022-08-24T19:24:42.921Z,29.70
2022-08-24T19:27:11.526Z,29.60
2022-08-24T19:29:55.187Z,29.60
2022-08-24T19:32:29.041Z,29.50
2022-08-24T19:35:00.483Z,29.40
2022-08-24T19:37:28.825Z,29.40
2022-08-24T19:39:57.860Z,29.30
2022-08-24T19:42:27.770Z,29.30
2022-08-24T19:45:13.637Z,29.20
2022-08-24T19:47:41.902Z,29.10
2022-08-24T19:50:14.362Z,29.10
2022-08-24T19:52:48.550Z,29.00
2022-08-24T19:55:17.319Z,29.00
2022-08-24T19:57:51.327Z,28.90
2022-08-24T20:00:30.515Z,28.80
2022-08-24T20:03:00.784Z,28.80
2022-08-24T20:05:30.617Z,28.70
2022-08-24T20:08:00.494Z,28.60
2022-08-24T20:10:28.855Z,28.60
2022-08-24T20:12:57.064Z,28.60
2022-08-24T20:15:26.279Z,28.60
2022-08-24T20:17:57.560Z,28.50
2022-08-24T20:20:29.301Z,28.50
2022-08-24T20:23:00.332Z,28.40
2022-08-24T20:25:28.634Z,28.40
2022-08-24T20:28:25.360Z,28.30
2022-08-24T20:30:47.721Z,28.30
2022-08-24T20:33:18.609Z,28.20
2022-08-24T20:35:48.765Z,28.10
2022-08-24T20:38:20.349Z,28.10
2022-08-24T20:40:50.542Z,28.00
2022-08-24T20:43:19.126Z,28.00
2022-08-24T20:45:47.716Z,28.00
2022-08-24T20:48:17.373Z,27.90
2022-08-24T20:50:47.336Z,27.90
2022-08-24T20:53:15.505Z,27.80
2022-08-24T20:55:43.803Z,27.80
2022-08-24T20:58:12.200Z,27.70
2022-08-24T21:00:44.077Z,27.70
2022-08-24T21:03:15.924Z,27.60
2022-08-24T21:05:44.691Z,27.60
2022-08-24T21:08:15.638Z,27.50
2022-08-24T21:10:44.651Z,27.50
2022-08-24T21:13:13.813Z,27.40
2022-08-24T21:15:42.462Z,27.40
2022-08-24T21:18:11.401Z,27.30
2022-08-24T21:20:44.479Z,27.30
2022-08-24T21:23:20.885Z,27.20
2022-08-24T21:25:49.127Z,27.20
2022-08-24T21:28:19.506Z,27.10
2022-08-24T21:30:47.848Z,27.10
2022-08-24T21:33:33.537Z,27.10
2022-08-24T21:36:01.753Z,27.10
2022-08-24T21:38:32.694Z,27.00
2022-08-24T21:41:01.231Z,27.00
2022-08-24T21:43:30.877Z,27.00
2022-08-24T21:45:59.074Z,27.00
2022-08-24T21:48:27.365Z,27.10
2022-08-24T21:50:55.658Z,27.10
2022-08-24T21:53:23.929Z,27.00
2022-08-24T21:55:58.677Z,27.00
2022-08-24T21:58:27.333Z,27.00
2022-08-24T22:00:55.931Z,27.00
2022-08-24T22:03:31.458Z,26.90
2022-08-24T22:06:02.921Z,26.90
2022-08-24T22:08:31.125Z,26.90
2022-08-24T22:11:01.129Z,26.80
2022-08-24T22:13:29.409Z,26.80
2022-08-24T22:15:57.683Z,26.80
2022-08-24T22:18:25.939Z,26.80
2022-08-24T22:20:54.255Z,26.70
2022-08-24T22:23:24.099Z,26.70
2022-08-24T22:25:53.447Z,26.70
2022-08-24T22:28:24.278Z,26.60
2022-08-24T22:30:52.566Z,26.60
2022-08-24T22:33:20.980Z,26.60
2022-08-24T22:35:50.351Z,26.60
2022-08-24T22:38:18.858Z,26.60
2022-08-24T22:40:47.445Z,26.50
2022-08-24T22:43:15.618Z,26.50
2022-08-24T22:45:45.320Z,26.40
2022-08-24T22:48:13.523Z,26.40
2022-08-24T22:50:45.896Z,26.40
2022-08-24T22:53:14.473Z,26.40
2022-08-24T22:55:42.658Z,26.30
2022-08-24T22:58:10.909Z,26.30
2022-08-24T23:00:40.593Z,26.30
2022-08-24T23:03:10.165Z,26.30
2022-08-24T23:05:38.346Z,26.30
2022-08-24T23:08:06.597Z,26.30
2022-08-24T23:10:35.159Z,26.20
2022-08-24T23:13:03.560Z,26.20
2022-08-24T23:15:32.035Z,26.20
2022-08-24T23:18:20.322Z,26.20
2022-08-24T23:20:48.912Z,26.10
2022-08-24T23:23:17.582Z,26.10
2022-08-24T23:25:46.245Z,26.00
2022-08-24T23:28:14.431Z,26.00
2022-08-24T23:30:42.757Z,26.00
2022-08-24T23:33:11.069Z,26.00
2022-08-24T23:35:39.317Z,26.00
2022-08-24T23:38:08.959Z,26.00
2022-08-24T23:40:41.778Z,26.00
2022-08-24T23:43:10.105Z,26.00
2022-08-24T23:45:38.958Z,26.00
2022-08-24T23:48:08.246Z,26.00
2022-08-24T23:50:36.446Z,26.00
2022-08-24T23:53:04.700Z,26.00
2022-08-24T23:55:34.519Z,26.00
2022-08-24T23:58:03.982Z,26.00
